sensor_id;sensor_type;location;lat;lon;timestamp;P1;durP1;ratioP1;P2;durP2;ratioP2
8331;SDS011;4203;48.144;14.118;2022-10-16T00:01:05;20.52;;;7.07;;
8331;SDS011;4203;48.144;14.118;2022-10-16T00:03:34;25.20;;;7.07;;
8331;SDS011;4203;48.144;14.118;2022-10-16T00:06:01;15.68;;;6.43;;
8331;SDS011;4203;48.144;14.118;2022-10-16T00:08:31;21.73;;;6.45;;
8331;SDS011;4203;48.144;14.118;2022-10-16T00:10:59;25.02;;;7.43;;
8331;SDS011;4203;48.144;14.118;2022-10-16T00:13:28;14.75;;;6.75;;
8331;SDS011;4203;48.144;14.118;2022-10-16T00:15:55;12.60;;;5.68;;
8331;SDS011;4203;48.144;14.118;2022-10-16T00:18:24;6.88;;;6.38;;
8331;SDS011;4203;48.144;14.118;2022-10-16T00:20:51;10.85;;;6.30;;
8331;SDS011;4203;48.144;14.118;2022-10-16T00:23:18;7.90;;;5.35;;
8331;SDS011;4203;48.144;14.118;2022-10-16T00:25:55;14.18;;;6.63;;
8331;SDS011;4203;48.144;14.118;2022-10-16T00:28:23;14.73;;;6.47;;
8331;SDS011;4203;48.144;14.118;2022-10-16T00:30:51;14.02;;;6.07;;
8331;SDS011;4203;48.144;14.118;2022-10-16T00:33:18;9.02;;;5.93;;
8331;SDS011;4203;48.144;14.118;2022-10-16T00:35:45;7.95;;;6.35;;
8331;SDS011;4203;48.144;14.118;2022-10-16T00:38:13;14.23;;;6.13;;
8331;SDS011;4203;48.144;14.118;2022-10-16T00:40:40;8.93;;;5.85;;
8331;SDS011;4203;48.144;14.118;2022-10-16T00:43:13;8.18;;;6.10;;
8331;SDS011;4203;48.144;14.118;2022-10-16T00:45:59;10.57;;;6.25;;
8331;SDS011;4203;48.144;14.118;2022-10-16T00:48:28;26.20;;;6.85;;
8331;SDS011;4203;48.144;14.118;2022-10-16T00:50:57;16.23;;;6.75;;
8331;SDS011;4203;48.144;14.118;2022-10-16T00:53:25;13.88;;;6.32;;
8331;SDS011;4203;48.144;14.118;2022-10-16T00:55:53;17.38;;;6.75;;
8331;SDS011;4203;48.144;14.118;2022-10-16T00:58:22;19.17;;;6.53;;
8331;SDS011;4203;48.144;14.118;2022-10-16T01:00:49;15.18;;;6.45;;
8331;SDS011;4203;48.144;14.118;2022-10-16T01:03:24;16.15;;;6.55;;
8331;SDS011;4203;48.144;14.118;2022-10-16T01:05:56;17.80;;;6.72;;
8331;SDS011;4203;48.144;14.118;2022-10-16T01:08:34;12.65;;;6.10;;
8331;SDS011;4203;48.144;14.118;2022-10-16T01:11:12;18.30;;;7.47;;
8331;SDS011;4203;48.144;14.118;2022-10-16T01:13:51;11.35;;;6.13;;
8331;SDS011;4203;48.144;14.118;2022-10-16T01:16:23;7.60;;;5.60;;
8331;SDS011;4203;48.144;14.118;2022-10-16T01:18:57;6.78;;;6.18;;
8331;SDS011;4203;48.144;14.118;2022-10-16T01:21:31;6.22;;;5.63;;
8331;SDS011;4203;48.144;14.118;2022-10-16T01:24:03;13.70;;;6.38;;
8331;SDS011;4203;48.144;14.118;2022-10-16T01:26:43;5.47;;;5.07;;
8331;SDS011;4203;48.144;14.118;2022-10-16T01:29:22;9.05;;;5.50;;
8331;SDS011;4203;48.144;14.118;2022-10-16T01:31:55;12.13;;;5.45;;
8331;SDS011;4203;48.144;14.118;2022-10-16T01:34:28;7.32;;;5.22;;
8331;SDS011;4203;48.144;14.118;2022-10-16T01:37:02;13.82;;;5.90;;
8331;SDS011;4203;48.144;14.118;2022-10-16T01:39:35;7.68;;;5.32;;
8331;SDS011;4203;48.144;14.118;2022-10-16T01:42:05;15.05;;;5.85;;
8331;SDS011;4203;48.144;14.118;2022-10-16T01:44:37;7.57;;;5.70;;
8331;SDS011;4203;48.144;14.118;2022-10-16T01:47:05;7.47;;;5.60;;
8331;SDS011;4203;48.144;14.118;2022-10-16T01:49:36;13.30;;;5.70;;
8331;SDS011;4203;48.144;14.118;2022-10-16T01:52:07;8.23;;;5.95;;
8331;SDS011;4203;48.144;14.118;2022-10-16T01:54:37;10.93;;;6.30;;
8331;SDS011;4203;48.144;14.118;2022-10-16T01:57:08;8.63;;;4.80;;
8331;SDS011;4203;48.144;14.118;2022-10-16T01:59:39;19.10;;;5.38;;
8331;SDS011;4203;48.144;14.118;2022-10-16T02:02:09;14.38;;;5.07;;
8331;SDS011;4203;48.144;14.118;2022-10-16T02:04:37;7.05;;;5.25;;
8331;SDS011;4203;48.144;14.118;2022-10-16T02:07:07;12.05;;;5.47;;
8331;SDS011;4203;48.144;14.118;2022-10-16T02:09:35;6.47;;;4.95;;
8331;SDS011;4203;48.144;14.118;2022-10-16T02:12:03;13.30;;;6.10;;
8331;SDS011;4203;48.144;14.118;2022-10-16T02:14:35;12.38;;;6.13;;
8331;SDS011;4203;48.144;14.118;2022-10-16T02:17:09;9.00;;;5.18;;
8331;SDS011;4203;48.144;14.118;2022-10-16T02:19:38;15.73;;;6.10;;
8331;SDS011;4203;48.144;14.118;2022-10-16T02:22:05;7.22;;;5.35;;
8331;SDS011;4203;48.144;14.118;2022-10-16T02:24:38;17.92;;;5.93;;
8331;SDS011;4203;48.144;14.118;2022-10-16T02:27:10;15.35;;;6.07;;
8331;SDS011;4203;48.144;14.118;2022-10-16T02:29:42;14.52;;;5.18;;
8331;SDS011;4203;48.144;14.118;2022-10-16T02:32:15;12.07;;;5.22;;
8331;SDS011;4203;48.144;14.118;2022-10-16T02:34:46;8.85;;;4.78;;
8331;SDS011;4203;48.144;14.118;2022-10-16T02:37:14;14.00;;;5.20;;
8331;SDS011;4203;48.144;14.118;2022-10-16T02:39:43;14.00;;;4.95;;
8331;SDS011;4203;48.144;14.118;2022-10-16T02:42:11;10.90;;;5.18;;
8331;SDS011;4203;48.144;14.118;2022-10-16T02:44:38;14.30;;;5.10;;
8331;SDS011;4203;48.144;14.118;2022-10-16T02:47:07;15.55;;;5.00;;
8331;SDS011;4203;48.144;14.118;2022-10-16T02:49:34;11.82;;;5.28;;
8331;SDS011;4203;48.144;14.118;2022-10-16T02:52:02;13.20;;;5.13;;
8331;SDS011;4203;48.144;14.118;2022-10-16T02:54:29;18.30;;;6.10;;
8331;SDS011;4203;48.144;14.118;2022-10-16T02:56:56;18.80;;;5.15;;
8331;SDS011;4203;48.144;14.118;2022-10-16T02:59:23;8.93;;;4.90;;
8331;SDS011;4203;48.144;14.118;2022-10-16T03:01:52;5.95;;;4.90;;
8331;SDS011;4203;48.144;14.118;2022-10-16T03:04:19;10.07;;;5.10;;
8331;SDS011;4203;48.144;14.118;2022-10-16T03:06:46;11.60;;;4.40;;
8331;SDS011;4203;48.144;14.118;2022-10-16T03:09:13;23.23;;;5.22;;
8331;SDS011;4203;48.144;14.118;2022-10-16T03:11:41;18.02;;;5.28;;
8331;SDS011;4203;48.144;14.118;2022-10-16T03:14:08;14.32;;;4.80;;
8331;SDS011;4203;48.144;14.118;2022-10-16T03:16:35;9.93;;;4.80;;
8331;SDS011;4203;48.144;14.118;2022-10-16T03:19:04;13.80;;;5.30;;
8331;SDS011;4203;48.144;14.118;2022-10-16T03:21:31;10.20;;;4.80;;
8331;SDS011;4203;48.144;14.118;2022-10-16T03:23:58;12.77;;;4.80;;
8331;SDS011;4203;48.144;14.118;2022-10-16T03:26:25;12.95;;;5.30;;
8331;SDS011;4203;48.144;14.118;2022-10-16T03:28:52;29.45;;;5.30;;
8331;SDS011;4203;48.144;14.118;2022-10-16T03:31:19;25.30;;;5.95;;
8331;SDS011;4203;48.144;14.118;2022-10-16T03:33:47;25.15;;;5.82;;
8331;SDS011;4203;48.144;14.118;2022-10-16T03:36:15;12.55;;;5.55;;
8331;SDS011;4203;48.144;14.118;2022-10-16T03:38:43;8.48;;;6.20;;
8331;SDS011;4203;48.144;14.118;2022-10-16T03:41:10;30.77;;;6.00;;
8331;SDS011;4203;48.144;14.118;2022-10-16T03:43:37;34.22;;;6.40;;
8331;SDS011;4203;48.144;14.118;2022-10-16T03:46:04;12.15;;;5.50;;
8331;SDS011;4203;48.144;14.118;2022-10-16T03:48:32;21.85;;;5.60;;
8331;SDS011;4203;48.144;14.118;2022-10-16T03:50:59;9.38;;;5.70;;
8331;SDS011;4203;48.144;14.118;2022-10-16T03:53:28;14.93;;;6.00;;
8331;SDS011;4203;48.144;14.118;2022-10-16T03:55:55;54.22;;;7.18;;
8331;SDS011;4203;48.144;14.118;2022-10-16T03:58:23;12.18;;;5.68;;
8331;SDS011;4203;48.144;14.118;2022-10-16T04:00:50;24.90;;;6.43;;
8331;SDS011;4203;48.144;14.118;2022-10-16T04:03:17;19.60;;;5.88;;
8331;SDS011;4203;48.144;14.118;2022-10-16T04:05:44;24.73;;;5.88;;
8331;SDS011;4203;48.144;14.118;2022-10-16T04:08:12;23.33;;;5.63;;
8331;SDS011;4203;48.144;14.118;2022-10-16T04:10:40;34.65;;;6.55;;
8331;SDS011;4203;48.144;14.118;2022-10-16T04:13:09;33.72;;;6.13;;
8331;SDS011;4203;48.144;14.118;2022-10-16T04:15:36;19.05;;;5.10;;
8331;SDS011;4203;48.144;14.118;2022-10-16T04:18:03;11.05;;;5.60;;
8331;SDS011;4203;48.144;14.118;2022-10-16T04:20:31;5.07;;;4.55;;
8331;SDS011;4203;48.144;14.118;2022-10-16T04:22:59;8.23;;;4.50;;
8331;SDS011;4203;48.144;14.118;2022-10-16T04:25:26;5.68;;;4.90;;
8331;SDS011;4203;48.144;14.118;2022-10-16T04:27:55;6.10;;;5.38;;
8331;SDS011;4203;48.144;14.118;2022-10-16T04:30:22;8.60;;;5.72;;
8331;SDS011;4203;48.144;14.118;2022-10-16T04:32:50;7.20;;;5.35;;
8331;SDS011;4203;48.144;14.118;2022-10-16T04:35:18;8.48;;;5.22;;
8331;SDS011;4203;48.144;14.118;2022-10-16T04:37:46;7.53;;;5.10;;
8331;SDS011;4203;48.144;14.118;2022-10-16T04:40:13;8.40;;;5.13;;
8331;SDS011;4203;48.144;14.118;2022-10-16T04:42:41;7.53;;;5.43;;
8331;SDS011;4203;48.144;14.118;2022-10-16T04:45:09;5.90;;;4.72;;
8331;SDS011;4203;48.144;14.118;2022-10-16T04:47:37;10.50;;;5.20;;
8331;SDS011;4203;48.144;14.118;2022-10-16T04:50:04;11.95;;;5.68;;
8331;SDS011;4203;48.144;14.118;2022-10-16T04:52:32;6.43;;;5.93;;
8331;SDS011;4203;48.144;14.118;2022-10-16T04:54:59;5.85;;;5.00;;
8331;SDS011;4203;48.144;14.118;2022-10-16T04:57:28;7.35;;;5.35;;
8331;SDS011;4203;48.144;14.118;2022-10-16T04:59:55;6.13;;;5.53;;
8331;SDS011;4203;48.144;14.118;2022-10-16T05:02:24;7.85;;;5.35;;
8331;SDS011;4203;48.144;14.118;2022-10-16T05:04:51;5.22;;;4.88;;
8331;SDS011;4203;48.144;14.118;2022-10-16T05:07:19;6.10;;;5.10;;
8331;SDS011;4203;48.144;14.118;2022-10-16T05:09:46;6.45;;;4.45;;
8331;SDS011;4203;48.144;14.118;2022-10-16T05:12:13;4.53;;;4.22;;
8331;SDS011;4203;48.144;14.118;2022-10-16T05:14:40;9.95;;;4.63;;
8331;SDS011;4203;48.144;14.118;2022-10-16T05:17:08;5.70;;;4.75;;
8331;SDS011;4203;48.144;14.118;2022-10-16T05:19:36;10.20;;;4.88;;
8331;SDS011;4203;48.144;14.118;2022-10-16T05:22:03;4.83;;;4.30;;
8331;SDS011;4203;48.144;14.118;2022-10-16T05:24:30;7.65;;;4.40;;
8331;SDS011;4203;48.144;14.118;2022-10-16T05:26:58;9.82;;;5.57;;
8331;SDS011;4203;48.144;14.118;2022-10-16T05:29:25;11.90;;;5.93;;
8331;SDS011;4203;48.144;14.118;2022-10-16T05:31:52;17.42;;;5.50;;
8331;SDS011;4203;48.144;14.118;2022-10-16T05:34:20;15.98;;;5.97;;
8331;SDS011;4203;48.144;14.118;2022-10-16T05:36:49;24.88;;;6.10;;
8331;SDS011;4203;48.144;14.118;2022-10-16T05:39:16;95.25;;;8.82;;
8331;SDS011;4203;48.144;14.118;2022-10-16T05:41:44;30.25;;;6.35;;
8331;SDS011;4203;48.144;14.118;2022-10-16T05:44:11;22.42;;;6.47;;
8331;SDS011;4203;48.144;14.118;2022-10-16T05:46:38;7.13;;;5.17;;
8331;SDS011;4203;48.144;14.118;2022-10-16T05:49:05;13.50;;;5.13;;
8331;SDS011;4203;48.144;14.118;2022-10-16T05:51:32;21.55;;;5.68;;
8331;SDS011;4203;48.144;14.118;2022-10-16T05:54:01;28.88;;;6.03;;
8331;SDS011;4203;48.144;14.118;2022-10-16T05:56:28;57.50;;;7.32;;
8331;SDS011;4203;48.144;14.118;2022-10-16T05:58:55;108.55;;;10.18;;
8331;SDS011;4203;48.144;14.118;2022-10-16T06:01:22;9.80;;;6.07;;
8331;SDS011;4203;48.144;14.118;2022-10-16T06:03:50;23.55;;;7.20;;
8331;SDS011;4203;48.144;14.118;2022-10-16T06:06:19;56.05;;;7.30;;
8331;SDS011;4203;48.144;14.118;2022-10-16T06:08:49;128.75;;;9.30;;
8331;SDS011;4203;48.144;14.118;2022-10-16T06:11:19;39.45;;;7.78;;
8331;SDS011;4203;48.144;14.118;2022-10-16T06:13:48;139.68;;;10.50;;
8331;SDS011;4203;48.144;14.118;2022-10-16T06:16:16;41.50;;;7.22;;
8331;SDS011;4203;48.144;14.118;2022-10-16T06:18:43;90.15;;;9.45;;
8331;SDS011;4203;48.144;14.118;2022-10-16T06:21:12;59.35;;;7.22;;
8331;SDS011;4203;48.144;14.118;2022-10-16T06:23:42;7.78;;;5.22;;
8331;SDS011;4203;48.144;14.118;2022-10-16T06:26:11;14.88;;;6.35;;
8331;SDS011;4203;48.144;14.118;2022-10-16T06:28:40;38.25;;;6.53;;
8331;SDS011;4203;48.144;14.118;2022-10-16T06:31:08;5.63;;;5.20;;
8331;SDS011;4203;48.144;14.118;2022-10-16T06:33:36;16.13;;;5.60;;
8331;SDS011;4203;48.144;14.118;2022-10-16T06:36:05;17.85;;;6.32;;
8331;SDS011;4203;48.144;14.118;2022-10-16T06:38:33;60.58;;;7.95;;
8331;SDS011;4203;48.144;14.118;2022-10-16T06:41:00;62.55;;;8.25;;
8331;SDS011;4203;48.144;14.118;2022-10-16T06:43:28;38.47;;;7.18;;
8331;SDS011;4203;48.144;14.118;2022-10-16T06:45:59;38.05;;;6.97;;
8331;SDS011;4203;48.144;14.118;2022-10-16T06:48:27;126.38;;;11.82;;
8331;SDS011;4203;48.144;14.118;2022-10-16T06:50:55;94.20;;;9.25;;
8331;SDS011;4203;48.144;14.118;2022-10-16T06:53:24;19.50;;;6.90;;
8331;SDS011;4203;48.144;14.118;2022-10-16T06:55:52;122.45;;;10.00;;
8331;SDS011;4203;48.144;14.118;2022-10-16T06:58:19;75.60;;;7.93;;
8331;SDS011;4203;48.144;14.118;2022-10-16T07:00:46;159.02;;;10.98;;
8331;SDS011;4203;48.144;14.118;2022-10-16T07:03:15;50.10;;;6.20;;
8331;SDS011;4203;48.144;14.118;2022-10-16T07:05:42;142.85;;;10.48;;
8331;SDS011;4203;48.144;14.118;2022-10-16T07:08:10;57.63;;;7.93;;
8331;SDS011;4203;48.144;14.118;2022-10-16T07:10:37;94.53;;;8.25;;
8331;SDS011;4203;48.144;14.118;2022-10-16T07:13:04;72.88;;;7.40;;
8331;SDS011;4203;48.144;14.118;2022-10-16T07:15:32;75.80;;;7.47;;
8331;SDS011;4203;48.144;14.118;2022-10-16T07:18:00;58.42;;;6.72;;
8331;SDS011;4203;48.144;14.118;2022-10-16T07:20:28;42.05;;;6.40;;
8331;SDS011;4203;48.144;14.118;2022-10-16T07:22:55;45.28;;;6.50;;
8331;SDS011;4203;48.144;14.118;2022-10-16T07:25:23;20.33;;;5.57;;
8331;SDS011;4203;48.144;14.118;2022-10-16T07:27:50;20.00;;;5.47;;
8331;SDS011;4203;48.144;14.118;2022-10-16T07:30:22;21.95;;;5.95;;
8331;SDS011;4203;48.144;14.118;2022-10-16T07:32:49;12.70;;;5.78;;
8331;SDS011;4203;48.144;14.118;2022-10-16T07:35:16;12.10;;;5.45;;
8331;SDS011;4203;48.144;14.118;2022-10-16T07:37:45;28.52;;;6.38;;
8331;SDS011;4203;48.144;14.118;2022-10-16T07:40:12;5.40;;;4.88;;
8331;SDS011;4203;48.144;14.118;2022-10-16T07:42:40;6.25;;;5.38;;
8331;SDS011;4203;48.144;14.118;2022-10-16T07:45:07;5.15;;;4.68;;
8331;SDS011;4203;48.144;14.118;2022-10-16T07:47:35;8.15;;;4.90;;
8331;SDS011;4203;48.144;14.118;2022-10-16T07:50:02;7.75;;;6.97;;
8331;SDS011;4203;48.144;14.118;2022-10-16T07:52:30;11.93;;;11.02;;
8331;SDS011;4203;48.144;14.118;2022-10-16T07:54:58;5.90;;;5.35;;
8331;SDS011;4203;48.144;14.118;2022-10-16T07:57:26;11.23;;;10.13;;
8331;SDS011;4203;48.144;14.118;2022-10-16T07:59:53;6.25;;;5.75;;
8331;SDS011;4203;48.144;14.118;2022-10-16T08:02:20;4.28;;;4.07;;
8331;SDS011;4203;48.144;14.118;2022-10-16T08:04:47;4.93;;;3.25;;
8331;SDS011;4203;48.144;14.118;2022-10-16T08:07:15;4.88;;;4.47;;
8331;SDS011;4203;48.144;14.118;2022-10-16T08:09:42;4.88;;;2.92;;
8331;SDS011;4203;48.144;14.118;2022-10-16T08:12:11;4.07;;;3.10;;
8331;SDS011;4203;48.144;14.118;2022-10-16T08:14:38;3.28;;;2.95;;
8331;SDS011;4203;48.144;14.118;2022-10-16T08:17:05;4.90;;;2.45;;
8331;SDS011;4203;48.144;14.118;2022-10-16T08:19:32;2.75;;;2.55;;
8331;SDS011;4203;48.144;14.118;2022-10-16T08:21:59;2.40;;;2.30;;
8331;SDS011;4203;48.144;14.118;2022-10-16T08:24:27;3.60;;;3.40;;
8331;SDS011;4203;48.144;14.118;2022-10-16T08:26:56;4.82;;;2.13;;
8331;SDS011;4203;48.144;14.118;2022-10-16T08:29:25;2.40;;;2.30;;
8331;SDS011;4203;48.144;14.118;2022-10-16T08:31:52;3.80;;;3.50;;
8331;SDS011;4203;48.144;14.118;2022-10-16T08:34:19;2.88;;;2.78;;
8331;SDS011;4203;48.144;14.118;2022-10-16T08:36:46;3.92;;;3.40;;
8331;SDS011;4203;48.144;14.118;2022-10-16T08:39:13;4.68;;;2.40;;
8331;SDS011;4203;48.144;14.118;2022-10-16T08:41:55;2.70;;;2.50;;
8331;SDS011;4203;48.144;14.118;2022-10-16T08:45:02;2.85;;;2.75;;
8331;SDS011;4203;48.144;14.118;2022-10-16T08:47:53;4.65;;;4.38;;
8331;SDS011;4203;48.144;14.118;2022-10-16T08:50:32;2.47;;;2.38;;
8331;SDS011;4203;48.144;14.118;2022-10-16T08:53:03;2.30;;;2.20;;
8331;SDS011;4203;48.144;14.118;2022-10-16T08:55:33;3.38;;;3.28;;
8331;SDS011;4203;48.144;14.118;2022-10-16T08:58:11;7.78;;;2.17;;
8331;SDS011;4203;48.144;14.118;2022-10-16T09:00:41;2.75;;;2.55;;
8331;SDS011;4203;48.144;14.118;2022-10-16T09:03:13;9.27;;;4.57;;
8331;SDS011;4203;48.144;14.118;2022-10-16T09:06:01;2.42;;;2.33;;
8331;SDS011;4203;48.144;14.118;2022-10-16T09:08:36;2.58;;;2.42;;
8331;SDS011;4203;48.144;14.118;2022-10-16T09:11:14;3.63;;;3.33;;
8331;SDS011;4203;48.144;14.118;2022-10-16T09:13:47;2.53;;;2.33;;
8331;SDS011;4203;48.144;14.118;2022-10-16T09:16:21;2.42;;;2.25;;
8331;SDS011;4203;48.144;14.118;2022-10-16T09:18:54;2.83;;;2.28;;
8331;SDS011;4203;48.144;14.118;2022-10-16T09:21:26;3.40;;;1.80;;
8331;SDS011;4203;48.144;14.118;2022-10-16T09:23:57;2.00;;;1.90;;
8331;SDS011;4203;48.144;14.118;2022-10-16T09:26:25;5.05;;;2.33;;
8331;SDS011;4203;48.144;14.118;2022-10-16T09:28:53;1.85;;;1.77;;
8331;SDS011;4203;48.144;14.118;2022-10-16T09:31:22;1.70;;;1.70;;
8331;SDS011;4203;48.144;14.118;2022-10-16T09:33:51;1.90;;;1.80;;
8331;SDS011;4203;48.144;14.118;2022-10-16T09:36:21;1.88;;;1.70;;
8331;SDS011;4203;48.144;14.118;2022-10-16T09:39:01;3.25;;;3.05;;
8331;SDS011;4203;48.144;14.118;2022-10-16T09:41:30;2.33;;;1.85;;
8331;SDS011;4203;48.144;14.118;2022-10-16T09:44:01;2.22;;;2.00;;
8331;SDS011;4203;48.144;14.118;2022-10-16T09:46:32;1.80;;;1.70;;
8331;SDS011;4203;48.144;14.118;2022-10-16T09:49:00;2.17;;;1.70;;
8331;SDS011;4203;48.144;14.118;2022-10-16T09:51:30;2.30;;;1.90;;
8331;SDS011;4203;48.144;14.118;2022-10-16T09:53:59;1.60;;;1.50;;
8331;SDS011;4203;48.144;14.118;2022-10-16T09:56:29;7.10;;;2.10;;
8331;SDS011;4203;48.144;14.118;2022-10-16T09:58:59;4.05;;;2.50;;
8331;SDS011;4203;48.144;14.118;2022-10-16T10:01:29;2.70;;;2.50;;
8331;SDS011;4203;48.144;14.118;2022-10-16T10:04:03;8.15;;;3.05;;
8331;SDS011;4203;48.144;14.118;2022-10-16T10:06:31;3.00;;;2.70;;
8331;SDS011;4203;48.144;14.118;2022-10-16T10:09:06;2.70;;;2.60;;
8331;SDS011;4203;48.144;14.118;2022-10-16T10:11:50;2.88;;;2.67;;
8331;SDS011;4203;48.144;14.118;2022-10-16T10:14:20;3.95;;;2.97;;
8331;SDS011;4203;48.144;14.118;2022-10-16T10:16:51;4.53;;;3.10;;
8331;SDS011;4203;48.144;14.118;2022-10-16T10:19:19;3.05;;;2.33;;
8331;SDS011;4203;48.144;14.118;2022-10-16T10:21:48;3.47;;;2.47;;
8331;SDS011;4203;48.144;14.118;2022-10-16T10:24:17;2.28;;;2.17;;
8331;SDS011;4203;48.144;14.118;2022-10-16T10:26:48;2.10;;;2.00;;
8331;SDS011;4203;48.144;14.118;2022-10-16T10:29:28;6.05;;;2.33;;
8331;SDS011;4203;48.144;14.118;2022-10-16T10:32:09;2.25;;;1.88;;
8331;SDS011;4203;48.144;14.118;2022-10-16T10:34:51;4.90;;;2.20;;
8331;SDS011;4203;48.144;14.118;2022-10-16T10:37:41;2.53;;;1.80;;
8331;SDS011;4203;48.144;14.118;2022-10-16T10:40:24;1.83;;;1.75;;
8331;SDS011;4203;48.144;14.118;2022-10-16T10:43:02;1.92;;;1.83;;
8331;SDS011;4203;48.144;14.118;2022-10-16T10:45:38;1.83;;;1.73;;
8331;SDS011;4203;48.144;14.118;2022-10-16T10:51:10;3.47;;;2.00;;
8331;SDS011;4203;48.144;14.118;2022-10-16T10:53:44;5.03;;;2.20;;
8331;SDS011;4203;48.144;14.118;2022-10-16T10:56:23;3.80;;;1.35;;
8331;SDS011;4203;48.144;14.118;2022-10-16T10:59:07;1.40;;;1.30;;
8331;SDS011;4203;48.144;14.118;2022-10-16T11:01:50;1.45;;;1.38;;
8331;SDS011;4203;48.144;14.118;2022-10-16T11:07:25;3.60;;;1.42;;
8331;SDS011;4203;48.144;14.118;2022-10-16T11:09:56;4.32;;;1.20;;
8331;SDS011;4203;48.144;14.118;2022-10-16T11:12:29;1.67;;;1.20;;
8331;SDS011;4203;48.144;14.118;2022-10-16T11:15:02;1.80;;;1.23;;
8331;SDS011;4203;48.144;14.118;2022-10-16T11:17:35;1.55;;;1.38;;
8331;SDS011;4203;48.144;14.118;2022-10-16T11:20:11;1.95;;;1.27;;
8331;SDS011;4203;48.144;14.118;2022-10-16T11:22:44;1.33;;;1.23;;
8331;SDS011;4203;48.144;14.118;2022-10-16T11:25:18;1.10;;;1.10;;
8331;SDS011;4203;48.144;14.118;2022-10-16T11:27:50;2.42;;;2.10;;
8331;SDS011;4203;48.144;14.118;2022-10-16T11:30:24;2.03;;;1.15;;
8331;SDS011;4203;48.144;14.118;2022-10-16T11:35:53;1.13;;;1.13;;
8331;SDS011;4203;48.144;14.118;2022-10-16T11:38:27;1.85;;;1.20;;
8331;SDS011;4203;48.144;14.118;2022-10-16T11:41:00;1.10;;;1.10;;
8331;SDS011;4203;48.144;14.118;2022-10-16T11:43:32;2.35;;;1.23;;
8331;SDS011;4203;48.144;14.118;2022-10-16T11:46:05;3.42;;;1.00;;
8331;SDS011;4203;48.144;14.118;2022-10-16T11:48:38;1.42;;;1.33;;
8331;SDS011;4203;48.144;14.118;2022-10-16T11:51:14;1.30;;;1.20;;
8331;SDS011;4203;48.144;14.118;2022-10-16T11:53:50;4.10;;;1.30;;
8331;SDS011;4203;48.144;14.118;2022-10-16T11:56:22;1.27;;;1.25;;
8331;SDS011;4203;48.144;14.118;2022-10-16T11:58:52;6.05;;;1.20;;
8331;SDS011;4203;48.144;14.118;2022-10-16T12:01:25;2.83;;;1.02;;
8331;SDS011;4203;48.144;14.118;2022-10-16T12:04:12;1.15;;;1.00;;
8331;SDS011;4203;48.144;14.118;2022-10-16T12:06:48;3.22;;;1.35;;
8331;SDS011;4203;48.144;14.118;2022-10-16T12:09:21;2.90;;;1.20;;
8331;SDS011;4203;48.144;14.118;2022-10-16T12:11:52;3.40;;;1.30;;
8331;SDS011;4203;48.144;14.118;2022-10-16T12:14:21;11.25;;;2.10;;
8331;SDS011;4203;48.144;14.118;2022-10-16T12:17:00;1.70;;;1.35;;
8331;SDS011;4203;48.144;14.118;2022-10-16T12:19:31;3.90;;;1.70;;
8331;SDS011;4203;48.144;14.118;2022-10-16T12:22:01;3.80;;;1.20;;
8331;SDS011;4203;48.144;14.118;2022-10-16T12:24:31;1.67;;;1.20;;
8331;SDS011;4203;48.144;14.118;2022-10-16T12:27:02;3.47;;;1.10;;
8331;SDS011;4203;48.144;14.118;2022-10-16T12:29:43;1.73;;;1.00;;
8331;SDS011;4203;48.144;14.118;2022-10-16T12:32:22;3.05;;;1.00;;
8331;SDS011;4203;48.144;14.118;2022-10-16T12:34:54;4.70;;;1.10;;
8331;SDS011;4203;48.144;14.118;2022-10-16T12:37:25;1.77;;;1.00;;
8331;SDS011;4203;48.144;14.118;2022-10-16T12:39:54;4.25;;;1.50;;
8331;SDS011;4203;48.144;14.118;2022-10-16T12:42:24;1.33;;;1.25;;
8331;SDS011;4203;48.144;14.118;2022-10-16T12:44:59;2.72;;;1.15;;
8331;SDS011;4203;48.144;14.118;2022-10-16T12:47:38;2.90;;;0.90;;
8331;SDS011;4203;48.144;14.118;2022-10-16T12:50:25;1.85;;;1.10;;
8331;SDS011;4203;48.144;14.118;2022-10-16T12:52:59;3.15;;;1.00;;
8331;SDS011;4203;48.144;14.118;2022-10-16T12:55:30;1.63;;;1.10;;
8331;SDS011;4203;48.144;14.118;2022-10-16T12:58:14;1.45;;;0.90;;
8331;SDS011;4203;48.144;14.118;2022-10-16T13:00:54;2.38;;;1.10;;
8331;SDS011;4203;48.144;14.118;2022-10-16T13:03:27;0.90;;;0.90;;
8331;SDS011;4203;48.144;14.118;2022-10-16T13:06:14;1.23;;;1.20;;
8331;SDS011;4203;48.144;14.118;2022-10-16T13:11:58;1.73;;;1.00;;
8331;SDS011;4203;48.144;14.118;2022-10-16T13:17:40;1.67;;;0.90;;
8331;SDS011;4203;48.144;14.118;2022-10-16T13:20:18;2.60;;;0.90;;
8331;SDS011;4203;48.144;14.118;2022-10-16T13:22:55;1.08;;;1.08;;
8331;SDS011;4203;48.144;14.118;2022-10-16T13:25:35;2.30;;;1.10;;
8331;SDS011;4203;48.144;14.118;2022-10-16T13:28:11;4.60;;;1.00;;
8331;SDS011;4203;48.144;14.118;2022-10-16T13:30:42;0.80;;;0.80;;
8331;SDS011;4203;48.144;14.118;2022-10-16T13:33:13;3.50;;;1.00;;
8331;SDS011;4203;48.144;14.118;2022-10-16T13:35:47;1.08;;;1.08;;
8331;SDS011;4203;48.144;14.118;2022-10-16T13:38:17;0.90;;;0.82;;
8331;SDS011;4203;48.144;14.118;2022-10-16T13:40:51;1.05;;;1.05;;
8331;SDS011;4203;48.144;14.118;2022-10-16T13:43:21;1.75;;;1.00;;
8331;SDS011;4203;48.144;14.118;2022-10-16T13:45:52;1.08;;;1.08;;
8331;SDS011;4203;48.144;14.118;2022-10-16T13:48:24;1.60;;;1.27;;
8331;SDS011;4203;48.144;14.118;2022-10-16T13:50:59;1.98;;;1.20;;
8331;SDS011;4203;48.144;14.118;2022-10-16T13:53:27;2.67;;;1.20;;
8331;SDS011;4203;48.144;14.118;2022-10-16T13:55:59;2.22;;;1.20;;
8331;SDS011;4203;48.144;14.118;2022-10-16T13:58:27;1.30;;;1.20;;
8331;SDS011;4203;48.144;14.118;2022-10-16T14:00:55;1.65;;;1.30;;
8331;SDS011;4203;48.144;14.118;2022-10-16T14:03:24;1.23;;;1.17;;
8331;SDS011;4203;48.144;14.118;2022-10-16T14:05:53;2.10;;;1.13;;
8331;SDS011;4203;48.144;14.118;2022-10-16T14:08:22;1.40;;;1.40;;
8331;SDS011;4203;48.144;14.118;2022-10-16T14:10:52;1.55;;;1.45;;
8331;SDS011;4203;48.144;14.118;2022-10-16T14:13:26;1.27;;;1.20;;
8331;SDS011;4203;48.144;14.118;2022-10-16T14:16:00;1.65;;;1.23;;
8331;SDS011;4203;48.144;14.118;2022-10-16T14:18:32;2.25;;;1.77;;
8331;SDS011;4203;48.144;14.118;2022-10-16T14:21:03;1.63;;;1.35;;
8331;SDS011;4203;48.144;14.118;2022-10-16T14:23:32;1.02;;;1.02;;
8331;SDS011;4203;48.144;14.118;2022-10-16T14:29:01;2.28;;;1.60;;
8331;SDS011;4203;48.144;14.118;2022-10-16T14:31:37;2.38;;;1.90;;
8331;SDS011;4203;48.144;14.118;2022-10-16T14:34:05;2.60;;;2.05;;
8331;SDS011;4203;48.144;14.118;2022-10-16T14:36:54;4.10;;;2.13;;
8331;SDS011;4203;48.144;14.118;2022-10-16T14:39:22;3.90;;;1.83;;
8331;SDS011;4203;48.144;14.118;2022-10-16T14:41:51;3.63;;;1.73;;
8331;SDS011;4203;48.144;14.118;2022-10-16T14:44:20;2.45;;;1.70;;
8331;SDS011;4203;48.144;14.118;2022-10-16T14:46:54;3.00;;;1.50;;
8331;SDS011;4203;48.144;14.118;2022-10-16T14:49:22;4.68;;;1.65;;
8331;SDS011;4203;48.144;14.118;2022-10-16T14:51:50;1.77;;;1.70;;
8331;SDS011;4203;48.144;14.118;2022-10-16T14:54:18;1.60;;;1.50;;
8331;SDS011;4203;48.144;14.118;2022-10-16T14:56:46;2.17;;;1.30;;
8331;SDS011;4203;48.144;14.118;2022-10-16T14:59:16;1.60;;;1.50;;
8331;SDS011;4203;48.144;14.118;2022-10-16T15:01:54;2.05;;;1.77;;
8331;SDS011;4203;48.144;14.118;2022-10-16T15:04:21;3.13;;;2.03;;
8331;SDS011;4203;48.144;14.118;2022-10-16T15:06:48;1.92;;;1.83;;
8331;SDS011;4203;48.144;14.118;2022-10-16T15:09:16;3.28;;;1.42;;
8331;SDS011;4203;48.144;14.118;2022-10-16T15:11:43;1.85;;;1.60;;
8331;SDS011;4203;48.144;14.118;2022-10-16T15:14:12;1.65;;;1.60;;
8331;SDS011;4203;48.144;14.118;2022-10-16T15:16:41;1.42;;;1.42;;
8331;SDS011;4203;48.144;14.118;2022-10-16T15:19:08;1.75;;;1.70;;
8331;SDS011;4203;48.144;14.118;2022-10-16T15:21:35;3.13;;;1.70;;
8331;SDS011;4203;48.144;14.118;2022-10-16T15:24:02;2.45;;;1.90;;
8331;SDS011;4203;48.144;14.118;2022-10-16T15:26:34;2.67;;;1.70;;
8331;SDS011;4203;48.144;14.118;2022-10-16T15:29:02;4.65;;;1.85;;
8331;SDS011;4203;48.144;14.118;2022-10-16T15:31:29;2.13;;;2.00;;
8331;SDS011;4203;48.144;14.118;2022-10-16T15:33:58;1.85;;;1.65;;